Adams, Wisconsin
Current Conditions -  °F | °C
As of 6:58 PM on Wednesday 22 Oct 2014 (Local Time) from KVOK Reporting Station
Few Clouds Few Clouds  
Wind Chill: 36°   Ceiling: Unl
Heat Index: 41°   Visibility: 10mi
Dew Point: 36°   Wind: 7mph
Humidity: 81%   Direction: 130°SE
Pressure: 30.19"   Gusts: NA
Location:  43.96°N, 89.82°W
Report Text: KVOK 222358Z 13006KT 10SM FEW120 FEW180 05/02 A3019 RMK AO2A SLP237 57012
Loading
Personal Weather Stations






























Interactive Weather Map
Tropical Storm Tracking
New forecast layout! Learn more

10-Day Weather Forecast

Advertisements
Track Severe Weather on mobile